createdAt,value
2023-01-26T00:02:31.162Z,218.60
2023-01-26T00:05:17.802Z,202.60
2023-01-26T00:08:04.986Z,188.13
2023-01-26T00:10:51.702Z,187.63
2023-01-26T00:13:38.979Z,206.18
2023-01-26T00:16:27.841Z,189.52
2023-01-26T00:19:14.487Z,190.18
2023-01-26T00:22:00.937Z,179.25
2023-01-26T00:24:47.573Z,168.40
2023-01-26T00:27:34.617Z,166.07
2023-01-26T00:30:21.577Z,178.70
2023-01-26T00:33:09.274Z,170.55
2023-01-26T00:35:55.637Z,167.18
2023-01-26T00:38:43.232Z,169.88
2023-01-26T00:41:47.572Z,158.18
2023-01-26T00:44:35.359Z,152.93
2023-01-26T00:47:21.803Z,175.18
2023-01-26T00:50:12.698Z,161.32
2023-01-26T00:52:59.946Z,157.95
2023-01-26T00:55:46.328Z,158.57
2023-01-26T00:58:32.952Z,142.52
2023-01-26T01:01:19.325Z,163.77
2023-01-26T01:04:06.135Z,145.98
2023-01-26T01:06:54.605Z,144.00
2023-01-26T01:09:41.194Z,143.27
2023-01-26T01:12:31.637Z,133.15
2023-01-26T01:18:05.691Z,139.55
2023-01-26T01:20:52.207Z,147.95
2023-01-26T01:23:40.524Z,146.82
2023-01-26T01:26:28.020Z,140.98
2023-01-26T01:29:15.339Z,123.18
2023-01-26T01:32:02.163Z,146.20
2023-01-26T01:34:49.070Z,130.60
2023-01-26T01:37:36.799Z,137.10
2023-01-26T01:40:24.918Z,143.88
2023-01-26T01:43:13.157Z,134.20
2023-01-26T01:46:01.540Z,133.43
2023-01-26T01:48:54.226Z,137.15
2023-01-26T01:51:45.140Z,130.27
2023-01-26T01:54:36.511Z,128.40
2023-01-26T01:57:28.554Z,137.85
2023-01-26T02:00:18.539Z,127.60
2023-01-26T02:03:14.783Z,131.20
2023-01-26T02:06:05.946Z,130.73
2023-01-26T02:08:54.517Z,130.02
2023-01-26T02:11:44.950Z,139.07
2023-01-26T02:14:33.717Z,128.00
2023-01-26T02:17:20.431Z,128.73
2023-01-26T02:20:15.606Z,138.73
2023-01-26T02:23:11.527Z,123.25
2023-01-26T02:26:12.277Z,122.05
2023-01-26T02:31:46.862Z,138.23
2023-01-26T02:34:33.313Z,122.55
2023-01-26T02:37:19.524Z,132.02
2023-01-26T02:40:15.017Z,116.13
2023-01-26T02:43:02.534Z,115.93
2023-01-26T02:45:49.438Z,122.60
2023-01-26T02:48:53.218Z,128.18
2023-01-26T02:51:39.814Z,130.43
2023-01-26T02:54:44.806Z,128.75
2023-01-26T02:57:34.324Z,126.35
2023-01-26T03:00:24.845Z,129.95
2023-01-26T03:03:15.105Z,132.45
2023-01-26T03:06:01.803Z,126.50
2023-01-26T03:08:50.471Z,122.85
2023-01-26T03:11:42.922Z,126.38
2023-01-26T03:14:29.378Z,138.75
2023-01-26T03:17:16.935Z,128.00
2023-01-26T03:20:26.822Z,121.10
2023-01-26T03:23:31.251Z,126.90
2023-01-26T03:26:35.484Z,130.38
2023-01-26T03:29:22.935Z,119.93
2023-01-26T03:32:11.322Z,123.45
2023-01-26T03:35:01.138Z,117.70
2023-01-26T03:37:54.780Z,121.25
2023-01-26T03:41:19.816Z,118.18
2023-01-26T03:44:24.127Z,123.50
2023-01-26T03:47:29.133Z,112.25
2023-01-26T03:50:35.441Z,108.80
2023-01-26T03:53:41.637Z,109.50
2023-01-26T03:56:32.461Z,103.45
2023-01-26T03:59:37.868Z,97.63
2023-01-26T04:02:44.659Z,109.25
2023-01-26T04:05:50.518Z,106.38
2023-01-26T04:08:37.391Z,106.43
2023-01-26T04:11:24.733Z,109.88
2023-01-26T04:14:30.311Z,95.97
2023-01-26T04:17:38.493Z,99.50
2023-01-26T04:20:42.382Z,91.93
2023-01-26T04:23:30.300Z,90.43
2023-01-26T04:26:17.244Z,92.88
2023-01-26T04:29:04.030Z,89.47
2023-01-26T04:31:50.794Z,95.57
2023-01-26T04:34:40.111Z,92.45
2023-01-26T04:37:35.075Z,94.28
2023-01-26T04:40:22.843Z,92.55
2023-01-26T04:43:09.634Z,104.00
2023-01-26T04:46:00.978Z,98.10
2023-01-26T04:48:49.100Z,127.18
2023-01-26T04:51:35.589Z,123.35
2023-01-26T04:54:22.634Z,95.90
2023-01-26T04:57:11.314Z,98.18
2023-01-26T05:00:00.489Z,92.38
2023-01-26T05:02:48.272Z,92.65
2023-01-26T05:05:36.951Z,89.55
2023-01-26T05:08:24.156Z,91.18
2023-01-26T05:11:11.313Z,90.70
2023-01-26T05:14:22.430Z,78.43
2023-01-26T05:17:23.835Z,83.95
2023-01-26T05:20:37.104Z,151.88
2023-01-26T05:23:34.348Z,106.60
2023-01-26T05:26:34.370Z,87.90
2023-01-26T05:32:12.620Z,80.35
2023-01-26T05:34:59.497Z,84.85
2023-01-26T05:37:46.506Z,80.65
2023-01-26T05:40:34.267Z,91.45
2023-01-26T05:43:21.175Z,81.25
2023-01-26T05:46:28.032Z,81.80
2023-01-26T05:49:14.489Z,83.13
2023-01-26T05:52:02.127Z,85.30
2023-01-26T05:54:49.718Z,84.50
2023-01-26T05:57:37.080Z,88.40
2023-01-26T06:00:26.667Z,83.25
2023-01-26T06:03:22.401Z,84.25
2023-01-26T06:06:09.655Z,74.90
2023-01-26T06:09:09.078Z,89.13
2023-01-26T06:12:17.251Z,82.82
2023-01-26T06:15:16.015Z,92.70
2023-01-26T06:18:05.123Z,82.20
2023-01-26T06:20:53.905Z,79.53
2023-01-26T06:23:40.601Z,74.40
2023-01-26T06:26:27.590Z,72.05
2023-01-26T06:29:16.449Z,71.93
2023-01-26T06:32:02.963Z,74.88
2023-01-26T06:34:50.199Z,67.13
2023-01-26T06:37:38.448Z,67.70
2023-01-26T06:40:24.796Z,72.78
2023-01-26T06:43:11.600Z,64.20
2023-01-26T06:45:58.954Z,60.08
2023-01-26T06:48:45.633Z,67.18
2023-01-26T06:51:45.588Z,62.05
2023-01-26T06:54:33.525Z,67.77
2023-01-26T06:57:20.676Z,59.58
2023-01-26T07:00:24.299Z,64.97
2023-01-26T07:03:18.067Z,63.33
2023-01-26T07:06:05.998Z,62.95
2023-01-26T07:08:53.048Z,61.30
2023-01-26T07:11:41.332Z,64.07
2023-01-26T07:14:27.766Z,58.60
2023-01-26T07:17:14.639Z,67.78
2023-01-26T07:20:01.613Z,64.40
2023-01-26T07:22:48.361Z,66.70
2023-01-26T07:25:35.290Z,61.17
2023-01-26T07:28:23.580Z,57.55
2023-01-26T07:31:12.466Z,64.50
2023-01-26T07:33:58.934Z,58.28
2023-01-26T07:36:45.618Z,70.45
2023-01-26T07:39:32.655Z,77.65
2023-01-26T07:42:19.627Z,75.57
2023-01-26T07:45:20.480Z,69.80
2023-01-26T07:48:08.567Z,74.35
2023-01-26T07:50:55.149Z,88.10
2023-01-26T07:53:43.476Z,83.75
2023-01-26T07:56:30.716Z,81.90
2023-01-26T07:59:17.532Z,72.70
2023-01-26T08:02:05.438Z,87.65
2023-01-26T08:04:52.044Z,77.63
2023-01-26T08:07:39.104Z,71.50
2023-01-26T08:10:26.009Z,83.07
2023-01-26T08:13:12.550Z,75.07
2023-01-26T08:16:02.345Z,77.18
2023-01-26T08:18:51.286Z,73.88
2023-01-26T08:21:38.027Z,71.70
2023-01-26T08:24:26.549Z,72.93
2023-01-26T08:27:13.183Z,79.05
2023-01-26T08:29:59.836Z,72.55
2023-01-26T08:32:46.443Z,76.05
2023-01-26T08:35:34.909Z,70.75
2023-01-26T08:38:21.896Z,72.60
2023-01-26T08:41:08.339Z,64.63
2023-01-26T08:43:54.969Z,72.97
2023-01-26T08:46:41.707Z,76.03
2023-01-26T08:49:28.215Z,76.70
2023-01-26T08:52:16.683Z,58.80
2023-01-26T08:55:04.627Z,65.78
2023-01-26T08:57:55.172Z,55.03
2023-01-26T09:00:42.176Z,58.20
2023-01-26T09:03:29.272Z,60.90
2023-01-26T09:06:16.150Z,57.17
2023-01-26T09:09:04.262Z,58.38
2023-01-26T09:11:51.037Z,58.95
2023-01-26T09:14:37.947Z,48.97
2023-01-26T09:17:24.796Z,50.67
2023-01-26T09:20:12.911Z,61.97
2023-01-26T09:22:59.750Z,51.53
2023-01-26T09:25:53.338Z,52.75
2023-01-26T09:28:40.132Z,53.95
2023-01-26T09:31:26.782Z,56.05
2023-01-26T09:34:13.336Z,40.42
2023-01-26T09:36:59.934Z,46.47
2023-01-26T09:39:46.704Z,44.70
2023-01-26T09:42:50.889Z,41.97
2023-01-26T09:45:47.449Z,57.47
2023-01-26T09:48:44.811Z,35.47
2023-01-26T09:51:35.884Z,43.40
2023-01-26T09:54:27.653Z,47.25
2023-01-26T09:57:17.378Z,38.97
2023-01-26T10:00:11.373Z,43.77
2023-01-26T10:03:11.038Z,37.30
2023-01-26T10:06:04.373Z,35.20
2023-01-26T10:09:25.122Z,33.85
2023-01-26T10:12:19.464Z,30.80
2023-01-26T10:15:26.752Z,33.03
2023-01-26T10:18:19.600Z,30.35
2023-01-26T10:21:08.609Z,43.20
2023-01-26T10:23:55.469Z,32.03
2023-01-26T10:26:43.186Z,25.85
2023-01-26T10:29:29.512Z,33.67
2023-01-26T10:32:19.195Z,26.90
2023-01-26T10:35:07.090Z,28.38
2023-01-26T10:37:53.976Z,20.85
2023-01-26T10:40:45.612Z,27.27
2023-01-26T10:43:41.662Z,26.73
2023-01-26T10:46:34.138Z,34.53
2023-01-26T10:49:22.642Z,30.77
2023-01-26T10:52:18.368Z,31.75
2023-01-26T10:55:12.253Z,31.75
2023-01-26T10:57:59.286Z,24.23
2023-01-26T11:00:55.922Z,19.17
2023-01-26T11:03:42.948Z,24.60
2023-01-26T11:06:32.126Z,21.27
2023-01-26T11:09:21.483Z,25.25
2023-01-26T11:12:07.873Z,21.55
2023-01-26T11:15:04.045Z,39.15
2023-01-26T11:17:57.901Z,18.38
2023-01-26T11:20:52.734Z,26.30
2023-01-26T11:23:49.418Z,25.48
2023-01-26T11:27:06.522Z,16.13
2023-01-26T11:30:25.314Z,27.83
2023-01-26T11:33:21.687Z,27.13
2023-01-26T11:36:16.157Z,21.92
2023-01-26T11:39:14.931Z,22.50
2023-01-26T11:42:19.011Z,18.48
2023-01-26T11:45:21.958Z,17.15
2023-01-26T11:48:22.436Z,17.80
2023-01-26T11:51:21.574Z,14.95
2023-01-26T11:54:38.100Z,17.42
2023-01-26T11:57:29.749Z,22.55
2023-01-26T12:00:29.458Z,25.55
2023-01-26T12:03:24.877Z,20.45
2023-01-26T12:06:17.797Z,20.13
2023-01-26T12:09:11.800Z,18.23
2023-01-26T12:12:05.170Z,18.55
2023-01-26T12:14:58.173Z,17.58
2023-01-26T12:17:54.684Z,21.15
2023-01-26T12:20:45.563Z,17.00
2023-01-26T12:23:39.617Z,22.85
2023-01-26T12:26:29.975Z,21.02
2023-01-26T12:29:22.156Z,15.35
2023-01-26T12:32:13.570Z,12.50
2023-01-26T12:35:00.250Z,16.23
2023-01-26T12:37:54.105Z,22.52
2023-01-26T12:40:48.436Z,14.85
2023-01-26T12:43:49.029Z,22.38
2023-01-26T12:46:44.070Z,19.88
2023-01-26T12:49:37.227Z,21.10
2023-01-26T12:52:30.514Z,16.17
2023-01-26T12:55:21.194Z,17.65
2023-01-26T13:01:03.298Z,8.68
2023-01-26T13:03:56.583Z,13.88
2023-01-26T13:06:43.541Z,19.00
2023-01-26T13:09:30.257Z,10.95
2023-01-26T13:12:45.275Z,15.20
2023-01-26T13:15:33.539Z,14.70
2023-01-26T13:18:20.041Z,17.90
2023-01-26T13:21:10.112Z,13.23
2023-01-26T13:23:56.617Z,16.30
2023-01-26T13:26:45.422Z,17.20
2023-01-26T13:29:36.120Z,13.75
2023-01-26T13:33:02.820Z,16.88
2023-01-26T13:35:51.376Z,10.85
2023-01-26T13:38:43.653Z,14.63
2023-01-26T13:41:30.505Z,15.05
2023-01-26T13:44:22.971Z,16.05
2023-01-26T13:47:15.024Z,14.13
2023-01-26T13:50:01.462Z,15.48
2023-01-26T13:52:48.079Z,12.85
2023-01-26T13:55:42.159Z,12.85
2023-01-26T13:58:29.352Z,10.20
2023-01-26T14:01:17.099Z,22.58
2023-01-26T14:04:05.356Z,12.52
2023-01-26T14:06:56.378Z,11.50
2023-01-26T14:09:47.672Z,16.00
2023-01-26T14:12:41.898Z,12.30
2023-01-26T14:15:31.553Z,15.85
2023-01-26T14:18:22.538Z,16.73
2023-01-26T14:21:18.956Z,14.02
2023-01-26T14:24:10.355Z,11.00
2023-01-26T14:26:56.949Z,16.67
2023-01-26T14:29:45.025Z,8.07
2023-01-26T14:32:32.435Z,10.57
2023-01-26T14:35:23.113Z,11.95
2023-01-26T14:38:16.131Z,12.15
2023-01-26T14:41:03.853Z,16.00
2023-01-26T14:43:52.618Z,14.00
2023-01-26T14:46:57.554Z,13.57
2023-01-26T14:49:49.591Z,12.25
2023-01-26T14:52:39.532Z,7.85
2023-01-26T14:55:29.637Z,17.05
2023-01-26T14:58:22.315Z,18.92
2023-01-26T15:01:09.116Z,10.52
2023-01-26T15:04:03.345Z,9.35
2023-01-26T15:06:49.966Z,11.13
2023-01-26T15:09:36.883Z,10.93
2023-01-26T15:12:24.010Z,12.25
2023-01-26T15:15:15.000Z,9.18
2023-01-26T15:18:04.318Z,9.95
2023-01-26T15:21:01.442Z,7.05
2023-01-26T15:23:52.062Z,10.60
2023-01-26T15:26:38.392Z,12.68
2023-01-26T15:29:27.402Z,12.07
2023-01-26T15:32:29.679Z,12.60
2023-01-26T15:35:23.104Z,14.18
2023-01-26T15:38:13.103Z,21.55
2023-01-26T15:41:00.081Z,13.85
2023-01-26T15:43:46.723Z,8.70
2023-01-26T15:46:33.497Z,25.10
2023-01-26T15:49:22.847Z,11.27
2023-01-26T15:52:14.453Z,14.25
2023-01-26T15:55:02.605Z,16.17
2023-01-26T15:57:49.326Z,10.52
2023-01-26T16:00:37.086Z,11.43
2023-01-26T16:03:23.722Z,11.52
2023-01-26T16:06:19.260Z,11.05
2023-01-26T16:09:06.063Z,8.02
2023-01-26T16:11:54.483Z,7.03
2023-01-26T16:14:41.063Z,10.90
2023-01-26T16:17:27.968Z,7.10
2023-01-26T16:20:14.551Z,13.35
2023-01-26T16:23:01.720Z,11.38
2023-01-26T16:25:49.193Z,9.93
2023-01-26T16:28:37.303Z,11.90
2023-01-26T16:31:25.881Z,10.13
2023-01-26T16:34:12.899Z,10.48
2023-01-26T16:36:59.626Z,12.32
2023-01-26T16:39:46.215Z,11.90
2023-01-26T16:42:33.481Z,11.32
2023-01-26T16:45:23.840Z,8.93
2023-01-26T16:48:14.130Z,10.13
2023-01-26T16:51:02.821Z,12.20
2023-01-26T16:53:49.667Z,8.23
2023-01-26T16:56:36.584Z,9.88
2023-01-26T16:59:23.311Z,12.38
2023-01-26T17:02:23.438Z,8.23
2023-01-26T17:05:14.456Z,13.60
2023-01-26T17:08:01.829Z,12.77
2023-01-26T17:11:01.503Z,15.80
2023-01-26T17:13:50.193Z,7.63
2023-01-26T17:16:37.275Z,15.10
2023-01-26T17:19:25.313Z,13.15
2023-01-26T17:22:11.920Z,14.90
2023-01-26T17:24:58.926Z,15.60
2023-01-26T17:27:46.616Z,15.30
2023-01-26T17:30:33.497Z,14.85
2023-01-26T17:33:20.314Z,21.50
2023-01-26T17:36:09.081Z,18.35
2023-01-26T17:38:56.452Z,13.77
2023-01-26T17:41:43.144Z,14.45
2023-01-26T17:44:30.040Z,18.70
2023-01-26T17:47:16.690Z,14.50
2023-01-26T17:50:03.737Z,8.73
2023-01-26T17:52:51.830Z,17.17
2023-01-26T17:55:38.653Z,13.15
2023-01-26T17:58:25.098Z,13.55
2023-01-26T18:01:11.710Z,8.95
2023-01-26T18:03:58.428Z,16.33
2023-01-26T18:06:44.936Z,14.95
2023-01-26T18:09:32.793Z,11.05
2023-01-26T18:12:19.528Z,16.10
2023-01-26T18:15:06.960Z,13.23
2023-01-26T18:17:53.537Z,14.68
2023-01-26T18:20:40.171Z,7.75
2023-01-26T18:23:27.000Z,14.82
2023-01-26T18:26:15.826Z,10.25
2023-01-26T18:29:02.576Z,14.77
2023-01-26T18:31:49.461Z,14.10
2023-01-26T18:34:36.660Z,15.60
2023-01-26T18:37:23.359Z,21.10
2023-01-26T18:40:13.013Z,13.48
2023-01-26T18:43:01.484Z,10.07
2023-01-26T18:45:48.508Z,6.97
2023-01-26T18:48:36.079Z,11.68
2023-01-26T18:51:23.063Z,11.18
2023-01-26T18:54:09.972Z,8.63
2023-01-26T18:56:56.932Z,12.40
2023-01-26T18:59:45.297Z,13.18
2023-01-26T19:02:33.552Z,11.82
2023-01-26T19:05:20.090Z,16.27
2023-01-26T19:08:10.948Z,13.13
2023-01-26T19:10:58.222Z,10.38
2023-01-26T19:13:48.723Z,13.68
2023-01-26T19:16:37.132Z,17.75
2023-01-26T19:19:23.988Z,13.82
2023-01-26T19:22:11.014Z,11.60
2023-01-26T19:24:58.011Z,12.15
2023-01-26T19:27:44.456Z,14.98
2023-01-26T19:30:31.354Z,19.50
2023-01-26T19:33:25.248Z,18.20
2023-01-26T19:36:11.914Z,22.85
2023-01-26T19:38:58.338Z,13.50
2023-01-26T19:41:46.289Z,12.68
2023-01-26T19:44:33.167Z,11.40
2023-01-26T19:47:20.124Z,15.95
2023-01-26T19:50:09.899Z,16.88
2023-01-26T19:52:56.808Z,14.80
2023-01-26T19:55:43.357Z,22.85
2023-01-26T19:58:29.835Z,11.93
2023-01-26T20:01:16.401Z,18.35
2023-01-26T20:04:04.367Z,18.33
2023-01-26T20:06:52.037Z,24.02
2023-01-26T20:09:40.015Z,11.80
2023-01-26T20:12:26.408Z,20.20
2023-01-26T20:15:13.513Z,24.55
2023-01-26T20:18:00.922Z,13.60
2023-01-26T20:20:50.501Z,10.77
2023-01-26T20:23:45.589Z,19.75
2023-01-26T20:26:38.205Z,17.58
2023-01-26T20:29:24.741Z,18.00
2023-01-26T20:32:11.467Z,22.90
2023-01-26T20:34:59.091Z,17.73
2023-01-26T20:37:45.731Z,25.92
2023-01-26T20:40:33.841Z,13.23
2023-01-26T20:43:20.701Z,21.20
2023-01-26T20:46:08.025Z,17.42
2023-01-26T20:48:56.071Z,10.25
2023-01-26T20:51:45.348Z,11.45
2023-01-26T20:54:32.101Z,24.02
2023-01-26T20:57:19.976Z,15.10
2023-01-26T21:00:08.358Z,15.90
2023-01-26T21:02:55.318Z,27.42
2023-01-26T21:05:42.069Z,25.80
2023-01-26T21:08:29.274Z,18.70
2023-01-26T21:11:18.211Z,18.63
2023-01-26T21:14:06.318Z,15.68
2023-01-26T21:16:52.814Z,20.67
2023-01-26T21:19:39.304Z,20.38
2023-01-26T21:22:26.030Z,20.08
2023-01-26T21:25:14.126Z,14.13
2023-01-26T21:28:00.882Z,27.08
2023-01-26T21:30:48.918Z,26.00
2023-01-26T21:33:39.320Z,15.30
2023-01-26T21:36:27.619Z,19.00
2023-01-26T21:39:15.275Z,21.23
2023-01-26T21:42:01.580Z,24.13
2023-01-26T21:45:06.469Z,18.25
2023-01-26T21:48:08.412Z,24.77
2023-01-26T21:51:13.688Z,24.17
2023-01-26T21:54:00.723Z,26.50
2023-01-26T21:56:47.511Z,15.20
2023-01-26T21:59:32.794Z,16.75
2023-01-26T22:02:19.450Z,21.50
2023-01-26T22:05:08.864Z,20.23
2023-01-26T22:07:56.729Z,20.85
2023-01-26T22:10:43.393Z,19.90
2023-01-26T22:13:30.826Z,23.80
2023-01-26T22:16:17.418Z,26.83
2023-01-26T22:19:03.937Z,18.30
2023-01-26T22:21:51.773Z,13.55
2023-01-26T22:24:38.678Z,20.65
2023-01-26T22:27:24.965Z,18.90
2023-01-26T22:30:12.917Z,21.88
2023-01-26T22:32:59.726Z,24.95
2023-01-26T22:35:46.410Z,27.00
2023-01-26T22:38:35.826Z,18.52
2023-01-26T22:41:24.192Z,19.42
2023-01-26T22:44:10.662Z,25.33
2023-01-26T22:46:57.153Z,23.05
2023-01-26T22:49:43.800Z,22.25
2023-01-26T22:52:30.570Z,21.95
2023-01-26T22:55:18.712Z,20.27
2023-01-26T22:58:05.232Z,14.13
2023-01-26T23:04:17.466Z,22.83
2023-01-26T23:07:04.374Z,13.82
2023-01-26T23:09:50.842Z,22.73
2023-01-26T23:12:38.786Z,11.77
2023-01-26T23:15:25.492Z,17.92
2023-01-26T23:18:11.953Z,16.50
2023-01-26T23:20:59.373Z,18.67
2023-01-26T23:23:46.107Z,18.08
2023-01-26T23:26:32.611Z,10.60
2023-01-26T23:29:20.521Z,19.00
2023-01-26T23:32:07.305Z,15.20
2023-01-26T23:34:53.831Z,15.88
2023-01-26T23:37:40.395Z,18.00
2023-01-26T23:40:27.031Z,15.23
2023-01-26T23:43:16.980Z,10.55
2023-01-26T23:46:07.134Z,31.88
2023-01-26T23:48:53.449Z,18.15
2023-01-26T23:51:40.084Z,11.98
2023-01-26T23:54:26.667Z,14.15
2023-01-26T23:57:13.224Z,8.82
2023-01-26T23:59:59.712Z,12.60
